メインページ
METAR-TAF:

METAR-TAF

空港 :

ヴォロネジ, ロシア

緯度: 51-39N, 経度: 039-15E, 海抜: 154m

現時点の気象観測

当レポートは41分前の12:30(UTC)に作成
南西の風 6kt、から西の間で変化する
気温 -7°C
湿度 79%
気圧 1021 hPa
視程10km以上
1,500メートル以下は雲なし、積乱雲なし

METAR: UUOO 201230Z 23003MPS 190V260 CAVOK M07/M10 Q1021 R30/090050 NOSIG RMK QFE752

時間: 16:11 (13:11 UTC)

予報

当レポートは2時間11分前の11:00(UTC)に作成
予報は20日の 12時(UTC)から 20日の 21時(UTC)まで有効
西/南西の風 10kt
視程: 6000m
高度2000ftの雲は散在している

TAF: UUOO 201100Z 2012/2021 24005MPS 6000 SCT020

4,000以上の空港の気象観測と天気予報(METAR報とTAF報)

利用可能な観測所は地図上に黄色い丸と赤い丸で示す。

丸の上にカーソルを重ねると観測所名を参照できる。

次にクリックすると気象観測と天気予報を参照できる。

マップの切り替え:黒色「×」印の緑ボタンをクリックして拡大、「-」印の緑ボタンをクリックして縮小、緑色の三角印をクリックして隣りの地図に切り替え


METAR-TAF: